sensor_id;sensor_type;location;lat;lon;timestamp;pressure;altitude;pressure_sealevel;temperature;humidity
59690;BME280;45557;50.298;18.930;2022-11-20T00:01:17;97965.39;;;-5.25;74.32
59690;BME280;45557;50.298;18.930;2022-11-20T00:06:42;97958.65;;;-5.20;73.58
59690;BME280;45557;50.298;18.930;2022-11-20T00:12:29;97954.72;;;-5.26;72.66
59690;BME280;45557;50.298;18.930;2022-11-20T00:17:56;97951.91;;;-5.33;72.74
59690;BME280;45557;50.298;18.930;2022-11-20T00:23:40;97952.83;;;-5.26;72.86
59690;BME280;45557;50.298;18.930;2022-11-20T00:30:22;97958.15;;;-5.38;72.25
59690;BME280;45557;50.298;18.930;2022-11-20T00:36:45;97964.17;;;-5.49;73.02
59690;BME280;45557;50.298;18.930;2022-11-20T00:42:48;97951.18;;;-5.68;72.41
59690;BME280;45557;50.298;18.930;2022-11-20T00:48:53;97957.68;;;-5.86;72.44
59690;BME280;45557;50.298;18.930;2022-11-20T00:55:35;97945.32;;;-6.14;73.08
59690;BME280;45557;50.298;18.930;2022-11-20T01:01:59;97939.11;;;-6.29;74.08
59690;BME280;45557;50.298;18.930;2022-11-20T01:07:29;97938.38;;;-6.20;74.01
59690;BME280;45557;50.298;18.930;2022-11-20T01:12:55;97931.55;;;-6.18;73.91
59690;BME280;45557;50.298;18.930;2022-11-20T01:18:47;97922.45;;;-6.29;73.95
59690;BME280;45557;50.298;18.930;2022-11-20T01:24:14;97929.00;;;-6.23;74.98
59690;BME280;45557;50.298;18.930;2022-11-20T01:29:37;97930.47;;;-6.11;75.12
59690;BME280;45557;50.298;18.930;2022-11-20T01:35:01;97917.68;;;-5.99;75.00
59690;BME280;45557;50.298;18.930;2022-11-20T01:41:04;97913.36;;;-6.02;73.01
59690;BME280;45557;50.298;18.930;2022-11-20T01:53:34;97891.23;;;-6.58;73.87
59690;BME280;45557;50.298;18.930;2022-11-20T01:59:02;97892.17;;;-6.77;74.80
59690;BME280;45557;50.298;18.930;2022-11-20T02:04:26;97894.58;;;-6.87;75.24
59690;BME280;45557;50.298;18.930;2022-11-20T02:10:13;97893.96;;;-6.73;76.05
59690;BME280;45557;50.298;18.930;2022-11-20T02:15:37;97895.58;;;-6.49;75.98
59690;BME280;45557;50.298;18.930;2022-11-20T02:22:38;97903.72;;;-6.20;76.04
59690;BME280;45557;50.298;18.930;2022-11-20T02:28:21;97910.09;;;-6.16;74.10
59690;BME280;45557;50.298;18.930;2022-11-20T02:34:16;97920.73;;;-6.24;74.06
59690;BME280;45557;50.298;18.930;2022-11-20T02:40:19;97921.85;;;-6.25;74.14
59690;BME280;45557;50.298;18.930;2022-11-20T02:46:36;97922.16;;;-6.20;74.41
59690;BME280;45557;50.298;18.930;2022-11-20T02:53:19;97923.61;;;-6.01;74.40
59690;BME280;45557;50.298;18.930;2022-11-20T02:59:42;97924.01;;;-5.93;73.45
59690;BME280;45557;50.298;18.930;2022-11-20T03:06:25;97923.40;;;-6.23;73.14
59690;BME280;45557;50.298;18.930;2022-11-20T03:12:28;97923.71;;;-6.48;74.09
59690;BME280;45557;50.298;18.930;2022-11-20T03:19:11;97918.30;;;-6.63;75.41
59690;BME280;45557;50.298;18.930;2022-11-20T03:25:14;97916.84;;;-6.54;76.15
59690;BME280;45557;50.298;18.930;2022-11-20T03:31:28;97922.08;;;-6.33;77.01
59690;BME280;45557;50.298;18.930;2022-11-20T03:37:11;97927.43;;;-6.16;76.97
59690;BME280;45557;50.298;18.930;2022-11-20T03:43:02;97926.24;;;-6.05;76.04
59690;BME280;45557;50.298;18.930;2022-11-20T03:48:28;97914.89;;;-5.99;75.72
59690;BME280;45557;50.298;18.930;2022-11-20T03:54:33;97913.31;;;-5.81;75.78
59690;BME280;45557;50.298;18.930;2022-11-20T04:00:14;97911.95;;;-5.68;75.53
59690;BME280;45557;50.298;18.930;2022-11-20T04:06:30;97919.99;;;-5.61;74.79
59690;BME280;45557;50.298;18.930;2022-11-20T04:12:22;97921.28;;;-5.59;74.80
59690;BME280;45557;50.298;18.930;2022-11-20T04:18:51;97921.73;;;-5.57;74.86
59690;BME280;45557;50.298;18.930;2022-11-20T04:25:32;97916.82;;;-5.54;74.76
59690;BME280;45557;50.298;18.930;2022-11-20T04:31:33;97907.90;;;-5.60;73.17
59690;BME280;45557;50.298;18.930;2022-11-20T04:37:51;97899.33;;;-5.82;73.72
59690;BME280;45557;50.298;18.930;2022-11-20T04:44:14;97888.44;;;-5.95;74.11
59690;BME280;45557;50.298;18.930;2022-11-20T04:49:39;97882.83;;;-6.03;74.62
59690;BME280;45557;50.298;18.930;2022-11-20T04:55:04;97877.80;;;-6.04;74.80
59690;BME280;45557;50.298;18.930;2022-11-20T05:00:47;97864.82;;;-6.05;74.95
59690;BME280;45557;50.298;18.930;2022-11-20T05:07:29;97862.31;;;-5.90;75.70
59690;BME280;45557;50.298;18.930;2022-11-20T05:12:55;97862.35;;;-5.81;75.52
59690;BME280;45557;50.298;18.930;2022-11-20T05:18:22;97845.48;;;-5.77;75.28
59690;BME280;45557;50.298;18.930;2022-11-20T05:23:52;97845.88;;;-5.74;75.13
59690;BME280;45557;50.298;18.930;2022-11-20T05:29:16;97847.02;;;-5.63;75.13
59690;BME280;45557;50.298;18.930;2022-11-20T05:34:39;97845.29;;;-5.53;74.71
59690;BME280;45557;50.298;18.930;2022-11-20T05:40:09;97846.10;;;-5.54;74.26
59690;BME280;45557;50.298;18.930;2022-11-20T05:45:55;97845.60;;;-5.55;74.14
59690;BME280;45557;50.298;18.930;2022-11-20T05:52:38;97842.14;;;-5.55;74.36
59690;BME280;45557;50.298;18.930;2022-11-20T05:58:13;97844.89;;;-5.56;74.26
59690;BME280;45557;50.298;18.930;2022-11-20T06:04:16;97843.13;;;-5.47;74.29
59690;BME280;45557;50.298;18.930;2022-11-20T06:10:17;97844.52;;;-5.43;74.05
59690;BME280;45557;50.298;18.930;2022-11-20T06:16:02;97841.80;;;-5.41;73.69
59690;BME280;45557;50.298;18.930;2022-11-20T06:21:50;97849.30;;;-5.46;72.69
59690;BME280;45557;50.298;18.930;2022-11-20T06:28:33;97849.45;;;-5.57;72.39
59690;BME280;45557;50.298;18.930;2022-11-20T06:35:17;97853.17;;;-5.60;72.89
59690;BME280;45557;50.298;18.930;2022-11-20T06:42:05;97846.45;;;-5.56;73.03
59690;BME280;45557;50.298;18.930;2022-11-20T06:48:49;97841.52;;;-5.43;72.81
59690;BME280;45557;50.298;18.930;2022-11-20T06:55:31;97827.27;;;-5.29;73.31
59690;BME280;45557;50.298;18.930;2022-11-20T07:02:14;97823.23;;;-5.16;72.97
59690;BME280;45557;50.298;18.930;2022-11-20T07:07:46;97820.30;;;-5.05;72.98
59690;BME280;45557;50.298;18.930;2022-11-20T07:14:08;97823.20;;;-4.95;73.18
59690;BME280;45557;50.298;18.930;2022-11-20T07:19:56;97818.08;;;-4.90;71.96
59690;BME280;45557;50.298;18.930;2022-11-20T07:25:39;97811.91;;;-5.05;71.49
59690;BME280;45557;50.298;18.930;2022-11-20T07:32:06;97816.00;;;-5.17;72.25
59690;BME280;45557;50.298;18.930;2022-11-20T07:38:49;97815.16;;;-5.06;74.12
59690;BME280;45557;50.298;18.930;2022-11-20T07:45:32;97809.88;;;-4.74;74.68
59690;BME280;45557;50.298;18.930;2022-11-20T07:52:15;97806.48;;;-4.42;74.75
59690;BME280;45557;50.298;18.930;2022-11-20T07:58:57;97807.50;;;-4.06;74.58
59690;BME280;45557;50.298;18.930;2022-11-20T08:05:40;97816.23;;;-3.69;74.85
59690;BME280;45557;50.298;18.930;2022-11-20T08:12:29;97821.19;;;-3.32;74.98
59690;BME280;45557;50.298;18.930;2022-11-20T08:19:11;97830.23;;;-3.01;74.97
59690;BME280;45557;50.298;18.930;2022-11-20T08:25:35;97836.20;;;-2.75;74.72
59690;BME280;45557;50.298;18.930;2022-11-20T08:31:01;97839.84;;;-2.42;74.38
59690;BME280;45557;50.298;18.930;2022-11-20T08:37:11;97834.52;;;-2.11;73.96
59690;BME280;45557;50.298;18.930;2022-11-20T08:42:34;97836.20;;;-1.89;73.77
59690;BME280;45557;50.298;18.930;2022-11-20T08:48:02;97844.41;;;-1.69;74.04
59690;BME280;45557;50.298;18.930;2022-11-20T08:53:45;97848.09;;;-1.56;73.18
59690;BME280;45557;50.298;18.930;2022-11-20T09:00:07;97843.25;;;-1.45;72.69
59690;BME280;45557;50.298;18.930;2022-11-20T09:06:50;97838.91;;;-1.31;72.10
59690;BME280;45557;50.298;18.930;2022-11-20T09:13:33;97840.42;;;-1.02;71.64
59690;BME280;45557;50.298;18.930;2022-11-20T09:20:15;97838.76;;;-0.75;70.96
59690;BME280;45557;50.298;18.930;2022-11-20T09:25:42;97839.89;;;-0.57;70.40
59690;BME280;45557;50.298;18.930;2022-11-20T09:31:28;97833.08;;;-0.44;70.53
59690;BME280;45557;50.298;18.930;2022-11-20T09:37:23;97827.84;;;-0.22;70.25
59690;BME280;45557;50.298;18.930;2022-11-20T09:43:15;97822.16;;;-0.04;69.50
59690;BME280;45557;50.298;18.930;2022-11-20T09:54:58;97816.61;;;0.15;68.73
59690;BME280;45557;50.298;18.930;2022-11-20T10:00:28;97808.05;;;0.24;68.55
59690;BME280;45557;50.298;18.930;2022-11-20T10:06:32;97801.96;;;0.41;68.55
59690;BME280;45557;50.298;18.930;2022-11-20T10:13:55;97790.97;;;0.80;68.24
59690;BME280;45557;50.298;18.930;2022-11-20T10:20:29;97778.27;;;1.09;67.40
59690;BME280;45557;50.298;18.930;2022-11-20T10:32:48;97781.04;;;1.37;66.67
59690;BME280;45557;50.298;18.930;2022-11-20T10:39:04;97777.74;;;1.51;67.06
59690;BME280;45557;50.298;18.930;2022-11-20T10:46:01;97762.95;;;1.72;67.07
59690;BME280;45557;50.298;18.930;2022-11-20T11:03:32;97744.77;;;2.27;64.35
59690;BME280;45557;50.298;18.930;2022-11-20T11:08:58;97737.19;;;2.31;64.07
59690;BME280;45557;50.298;18.930;2022-11-20T11:14:21;97732.13;;;2.34;63.53
59690;BME280;45557;50.298;18.930;2022-11-20T11:26:22;97742.30;;;2.35;63.10
59690;BME280;45557;50.298;18.930;2022-11-20T11:31:47;97734.90;;;2.29;63.41
59690;BME280;45557;50.298;18.930;2022-11-20T11:37:19;97739.77;;;2.34;64.05
59690;BME280;45557;50.298;18.930;2022-11-20T11:43:06;97735.67;;;2.28;63.97
59690;BME280;45557;50.298;18.930;2022-11-20T11:49:29;97721.44;;;2.16;64.14
59690;BME280;45557;50.298;18.930;2022-11-20T11:55:38;97710.98;;;2.10;64.41
59690;BME280;45557;50.298;18.930;2022-11-20T12:01:52;97703.23;;;2.09;64.76
59690;BME280;45557;50.298;18.930;2022-11-20T12:07:39;97710.39;;;2.01;65.29
59690;BME280;45557;50.298;18.930;2022-11-20T12:19:24;97703.14;;;1.97;65.57
59690;BME280;45557;50.298;18.930;2022-11-20T12:26:00;97695.08;;;1.99;65.11
59690;BME280;45557;50.298;18.930;2022-11-20T12:39:41;97668.55;;;2.45;64.62
59690;BME280;45557;50.298;18.930;2022-11-20T12:45:42;97653.87;;;2.64;64.13
59690;BME280;45557;50.298;18.930;2022-11-20T12:51:34;97646.80;;;2.83;63.42
59690;BME280;45557;50.298;18.930;2022-11-20T13:03:47;97634.11;;;3.21;63.18
59690;BME280;45557;50.298;18.930;2022-11-20T13:09:50;97641.79;;;3.04;62.99
59690;BME280;45557;50.298;18.930;2022-11-20T13:16:24;97635.94;;;2.86;63.30
59690;BME280;45557;50.298;18.930;2022-11-20T13:23:06;97628.83;;;2.92;63.55
59690;BME280;45557;50.298;18.930;2022-11-20T13:29:32;97623.08;;;2.97;63.62
59690;BME280;45557;50.298;18.930;2022-11-20T13:36:05;97615.18;;;2.80;63.30
59690;BME280;45557;50.298;18.930;2022-11-20T13:41:41;97620.27;;;2.53;63.73
59690;BME280;45557;50.298;18.930;2022-11-20T13:47:28;97613.45;;;2.26;64.42
59690;BME280;45557;50.298;18.930;2022-11-20T13:53:48;97606.94;;;2.02;64.75
59690;BME280;45557;50.298;18.930;2022-11-20T14:00:16;97597.34;;;1.81;65.76
59690;BME280;45557;50.298;18.930;2022-11-20T14:06:05;97595.66;;;1.78;65.94
59690;BME280;45557;50.298;18.930;2022-11-20T14:11:29;97596.02;;;1.78;66.19
59690;BME280;45557;50.298;18.930;2022-11-20T14:17:51;97598.52;;;1.75;66.29
59690;BME280;45557;50.298;18.930;2022-11-20T14:23:25;97590.52;;;1.69;66.64
59690;BME280;45557;50.298;18.930;2022-11-20T14:28:51;97593.71;;;1.62;66.99
59690;BME280;45557;50.298;18.930;2022-11-20T14:34:53;97582.47;;;1.54;67.25
59690;BME280;45557;50.298;18.930;2022-11-20T14:40:24;97585.89;;;1.47;67.26
59690;BME280;45557;50.298;18.930;2022-11-20T14:45:56;97590.88;;;1.42;67.55
59690;BME280;45557;50.298;18.930;2022-11-20T14:51:35;97586.57;;;1.43;67.82
59690;BME280;45557;50.298;18.930;2022-11-20T14:57:04;97582.93;;;1.45;68.05
59690;BME280;45557;50.298;18.930;2022-11-20T15:02:47;97578.81;;;1.43;68.02
59690;BME280;45557;50.298;18.930;2022-11-20T15:09:33;97570.14;;;1.40;68.23
59690;BME280;45557;50.298;18.930;2022-11-20T15:16:21;97561.25;;;1.34;68.84
59690;BME280;45557;50.298;18.930;2022-11-20T15:22:44;97554.77;;;1.30;68.74
59690;BME280;45557;50.298;18.930;2022-11-20T15:29:31;97556.54;;;1.36;69.06
59690;BME280;45557;50.298;18.930;2022-11-20T15:36:00;97552.55;;;1.41;69.48
59690;BME280;45557;50.298;18.930;2022-11-20T15:41:51;97559.95;;;1.40;69.23
59690;BME280;45557;50.298;18.930;2022-11-20T15:47:40;97562.14;;;1.37;69.54
59690;BME280;45557;50.298;18.930;2022-11-20T15:54:30;97549.83;;;1.32;69.44
59690;BME280;45557;50.298;18.930;2022-11-20T16:01:18;97541.90;;;1.26;69.51
59690;BME280;45557;50.298;18.930;2022-11-20T16:07:26;97539.86;;;1.29;69.46
59690;BME280;45557;50.298;18.930;2022-11-20T16:13:02;97546.05;;;1.35;70.18
59690;BME280;45557;50.298;18.930;2022-11-20T16:19:44;97545.23;;;1.41;70.26
59690;BME280;45557;50.298;18.930;2022-11-20T16:26:38;97543.54;;;1.46;70.87
59690;BME280;45557;50.298;18.930;2022-11-20T16:33:23;97549.16;;;1.45;70.88
59690;BME280;45557;50.298;18.930;2022-11-20T16:40:34;97552.42;;;1.41;71.68
59690;BME280;45557;50.298;18.930;2022-11-20T16:47:22;97542.98;;;1.44;71.90
59690;BME280;45557;50.298;18.930;2022-11-20T16:53:48;97531.85;;;1.43;71.86
59690;BME280;45557;50.298;18.930;2022-11-20T17:01:09;97536.33;;;1.29;72.32
59690;BME280;45557;50.298;18.930;2022-11-20T17:07:16;97543.33;;;1.17;72.82
59690;BME280;45557;50.298;18.930;2022-11-20T17:13:43;97560.48;;;1.03;73.39
59690;BME280;45557;50.298;18.930;2022-11-20T17:20:32;97550.41;;;0.96;73.87
59690;BME280;45557;50.298;18.930;2022-11-20T17:27:27;97540.96;;;0.95;74.14
59690;BME280;45557;50.298;18.930;2022-11-20T17:34:15;97532.55;;;0.91;75.04
59690;BME280;45557;50.298;18.930;2022-11-20T17:41:14;97522.61;;;0.80;74.73
59690;BME280;45557;50.298;18.930;2022-11-20T17:47:58;97519.70;;;0.67;75.37
59690;BME280;45557;50.298;18.930;2022-11-20T17:54:31;97505.34;;;0.61;75.39
59690;BME280;45557;50.298;18.930;2022-11-20T18:01:45;97497.16;;;0.49;75.58
59690;BME280;45557;50.298;18.930;2022-11-20T18:14:16;97491.71;;;0.36;76.61
59690;BME280;45557;50.298;18.930;2022-11-20T18:20:56;97504.28;;;0.32;76.51
59690;BME280;45557;50.298;18.930;2022-11-20T18:27:47;97512.85;;;0.24;77.03
59690;BME280;45557;50.298;18.930;2022-11-20T18:34:36;97508.00;;;0.14;77.51
59690;BME280;45557;50.298;18.930;2022-11-20T18:41:02;97507.95;;;0.15;78.02
59690;BME280;45557;50.298;18.930;2022-11-20T18:47:45;97508.66;;;0.16;78.33
59690;BME280;45557;50.298;18.930;2022-11-20T18:54:48;97513.30;;;0.10;78.07
59690;BME280;45557;50.298;18.930;2022-11-20T19:01:45;97510.48;;;0.04;78.71
59690;BME280;45557;50.298;18.930;2022-11-20T19:08:36;97504.40;;;0.07;79.20
59690;BME280;45557;50.298;18.930;2022-11-20T19:15:27;97506.27;;;0.05;78.88
59690;BME280;45557;50.298;18.930;2022-11-20T19:22:09;97497.02;;;0.01;79.57
59690;BME280;45557;50.298;18.930;2022-11-20T19:28:50;97503.23;;;0.06;79.29
59690;BME280;45557;50.298;18.930;2022-11-20T19:36:01;97505.88;;;0.07;79.36
59690;BME280;45557;50.298;18.930;2022-11-20T19:49:39;97510.75;;;0.12;79.66
59690;BME280;45557;50.298;18.930;2022-11-20T19:56:22;97511.36;;;0.16;79.70
59690;BME280;45557;50.298;18.930;2022-11-20T20:03:07;97502.42;;;0.17;79.64
59690;BME280;45557;50.298;18.930;2022-11-20T20:09:50;97491.58;;;0.28;79.64
59690;BME280;45557;50.298;18.930;2022-11-20T20:16:37;97487.70;;;0.39;79.36
59690;BME280;45557;50.298;18.930;2022-11-20T20:23:17;97489.79;;;0.46;79.17
59690;BME280;45557;50.298;18.930;2022-11-20T20:33:00;97499.88;;;0.67;79.26
59690;BME280;45557;50.298;18.930;2022-11-20T20:39:12;97495.19;;;0.79;78.79
59690;BME280;45557;50.298;18.930;2022-11-20T20:45:55;97492.39;;;0.85;78.69
59690;BME280;45557;50.298;18.930;2022-11-20T20:52:48;97485.94;;;0.97;78.69
59690;BME280;45557;50.298;18.930;2022-11-20T20:59:29;97486.02;;;1.07;78.78
59690;BME280;45557;50.298;18.930;2022-11-20T21:06:14;97493.48;;;1.11;78.59
59690;BME280;45557;50.298;18.930;2022-11-20T21:12:57;97495.05;;;1.10;78.32
59690;BME280;45557;50.298;18.930;2022-11-20T21:19:39;97495.27;;;1.18;78.58
59690;BME280;45557;50.298;18.930;2022-11-20T21:32:45;97500.34;;;1.50;79.77
59690;BME280;45557;50.298;18.930;2022-11-20T21:38:59;97506.42;;;1.68;79.66
59690;BME280;45557;50.298;18.930;2022-11-20T21:45:21;97508.63;;;1.75;78.27
59690;BME280;45557;50.298;18.930;2022-11-20T21:51:25;97510.08;;;1.76;78.23
59690;BME280;45557;50.298;18.930;2022-11-20T21:57:09;97506.48;;;1.76;77.71
59690;BME280;45557;50.298;18.930;2022-11-20T22:02:58;97497.35;;;1.79;77.61
59690;BME280;45557;50.298;18.930;2022-11-20T22:08:29;97501.61;;;1.84;77.39
59690;BME280;45557;50.298;18.930;2022-11-20T22:14:12;97506.52;;;1.84;77.45
59690;BME280;45557;50.298;18.930;2022-11-20T22:20:01;97515.39;;;1.79;77.43
59690;BME280;45557;50.298;18.930;2022-11-20T22:25:37;97522.17;;;1.77;77.75
59690;BME280;45557;50.298;18.930;2022-11-20T22:31:11;97520.46;;;1.80;77.54
59690;BME280;45557;50.298;18.930;2022-11-20T22:36:56;97515.16;;;1.86;77.52
59690;BME280;45557;50.298;18.930;2022-11-20T22:43:01;97517.11;;;1.83;77.81
59690;BME280;45557;50.298;18.930;2022-11-20T22:49:11;97522.45;;;1.81;77.66
59690;BME280;45557;50.298;18.930;2022-11-20T22:55:06;97526.45;;;1.84;77.74
59690;BME280;45557;50.298;18.930;2022-11-20T23:01:48;97517.44;;;1.88;78.27
59690;BME280;45557;50.298;18.930;2022-11-20T23:08:30;97513.76;;;1.90;77.47
59690;BME280;45557;50.298;18.930;2022-11-20T23:15:13;97524.06;;;1.60;77.32
59690;BME280;45557;50.298;18.930;2022-11-20T23:21:34;97535.92;;;1.57;78.28
59690;BME280;45557;50.298;18.930;2022-11-20T23:27:55;97539.80;;;1.73;78.61
59690;BME280;45557;50.298;18.930;2022-11-20T23:34:20;97533.67;;;1.86;78.20
59690;BME280;45557;50.298;18.930;2022-11-20T23:40:45;97523.79;;;1.92;77.89
59690;BME280;45557;50.298;18.930;2022-11-20T23:47:23;97521.39;;;1.96;77.97
59690;BME280;45557;50.298;18.930;2022-11-20T23:54:04;97525.36;;;1.88;78.13
